Impacts TAF Board INFO
FOR SITUATIONAL AWARENESS. NOT TO BE USED FOR FLIGHT PLANNING PURPOSES.
IDs:

KFLL - Ft Lauderdale-Hollyw, FL, US

Issued at 0835 UTC 27 May 2017
Updated at 0959 UTC 27 May 2017
Potential Impact None Slight Moderate High
Time0953Z 27/10Z 27/11Z 27/12Z 27/13Z 27/14Z 27/15Z 27/16Z 27/17Z 27/18Z 27/19Z 27/20Z 27/21Z 27/22Z>>
Type OBS PRVL PRVL PRVL PRVL PRVL PRVL PRVL PRVL PRVL PRVL PRVL PRVL PRVL
VIS 10 >6 >6 >6 >6 >6 >6 >6 >6 >6 >6 >6 >6 >6
CIG -- 50 -- -- -- -- -- -- -- -- -- -- -- --
Cover SCT BKN SCT SCT SCT SCT SCT SCT SCT SCT SCT SCT SCT SCT
FltCat VFR VFR VFR VFR VFR VFR VFR VFR VFR VFR VFR VFR VFR VFR
WX -- -- -- -- -- -- -- -- -- -- -- -- -- --
WDir VRB 150 VRB VRB VRB VRB VRB 130 130 130 130 130 130 130
WSpd 0 5 0 0 0 0 0 10 10 10 10 10 10 10
WGst -- -- -- -- -- -- -- -- -- -- -- -- -- --

Raw TAF
KFLL 270835Z 2709/2806 15005KT P6SM FEW030 BKN050
  FM271100 00000KT P6SM SCT250
  FM271600 13010KT P6SM FEW040 SCT250
  FM280000 16004KT P6SM SKC


Raw METAR
KFLL 270953Z 00000KT 10SM FEW030 SCT040 26/25 A3003 RMK AO2 SLP167 T02610250
KFLL 270853Z 00000KT 10SM FEW030 SCT042 27/26 A3002 RMK AO2 SLP164 T02670256 55007
KFLL 270753Z 16005KT 10SM FEW027 SCT040 27/25 A3001 RMK AO2 SLP163 T02670250
KFLL 270653Z 15005KT 10SM FEW030 SCT037 27/25 A3003 RMK AO2 SLP167 T02670250

METAR Board
Radar Display
Forecast Discussion

FOR SITUATIONAL AWARENESS. NOT TO BE USED FOR FLIGHT PLANNING PURPOSES.

Page loaded:  09:59 UTC  |   02:59 AM Pacific  |   03:59 AM Mountain  |   04:59 AM Central  |   05:59 AM Eastern

 

ADVISORIES

FORECASTS

FORECASTS

OBSERVATIONS

USER TOOLS

ABOUT US